KDRA

Desert Rock Airport

Mercury, Nevada, USA
METAR KDRA 230755Z AUTO 00000KT 10SM BKN100 17/01 A2985 RMK AO2 SLP067 T01670006 402720144
Observed Flight Rules
May-23 @ 07:55 UTC (51 minutes ago) Visual Flight Rules
Visibility Clouds
10 miles
  • Broken at 10,000' AGL
Temperatures Readings
Current 17°C / 63°F
Dewpoint 1°C / 34°F
Humidity 34%
Altimeter 29.85" Hg
Pressure 1006.7 hPa
Elevation 1006
METAR KDRA 230755Z AUTO 00000KT 10SM BKN100 17/01 A2985 RMK AO2 SLP067 T01670006 402720144
Observed Flight Rules
May-23 @ 07:55 UTC
(51 minutes ago)
VFR
Clouds
  • Broken at 10,000' AGL
Temperature Dewpoint
17°C / 63°F 1°C / 34°F
Humidity Altimeter Pressure
34% 29.85" Hg 1006.7 hPa